createdAt,value
2019-01-22T00:00:19.569Z,99.90
2019-01-22T00:02:48.168Z,99.90
2019-01-22T00:05:16.870Z,99.90
2019-01-22T00:07:45.443Z,99.90
2019-01-22T00:10:14.947Z,99.90
2019-01-22T00:12:43.547Z,99.90
2019-01-22T00:15:13.362Z,99.90
2019-01-22T00:17:42.349Z,99.90
2019-01-22T00:20:13.630Z,99.90
2019-01-22T00:22:42.261Z,99.90
2019-01-22T00:25:12.946Z,99.90
2019-01-22T00:27:41.669Z,99.90
2019-01-22T00:30:18.939Z,99.90
2019-01-22T00:32:47.546Z,99.90
2019-01-22T00:35:16.159Z,99.90
2019-01-22T00:37:44.791Z,99.90
2019-01-22T00:40:15.878Z,99.90
2019-01-22T00:42:44.614Z,99.90
2019-01-22T00:45:14.365Z,99.90
2019-01-22T00:47:43.321Z,99.90
2019-01-22T00:50:14.771Z,99.90
2019-01-22T00:52:43.902Z,99.90
2019-01-22T00:55:15.440Z,99.90
2019-01-22T00:57:44.143Z,99.90
2019-01-22T01:00:29.849Z,99.90
2019-01-22T01:02:58.791Z,99.90
2019-01-22T01:05:27.986Z,99.90
2019-01-22T01:07:56.661Z,99.90
2019-01-22T01:10:25.666Z,99.90
2019-01-22T01:12:54.272Z,99.90
2019-01-22T01:15:22.978Z,99.90
2019-01-22T01:17:51.655Z,99.90
2019-01-22T01:20:22.038Z,99.90
2019-01-22T01:22:50.751Z,99.90
2019-01-22T01:25:21.430Z,99.90
2019-01-22T01:27:50.715Z,99.90
2019-01-22T01:30:22.395Z,99.90
2019-01-22T01:32:51.483Z,99.90
2019-01-22T01:35:20.023Z,99.90
2019-01-22T01:37:48.724Z,99.90
2019-01-22T01:40:19.416Z,99.90
2019-01-22T01:42:48.290Z,99.90
2019-01-22T01:45:17.304Z,99.90
2019-01-22T01:47:46.003Z,99.90
2019-01-22T01:50:16.592Z,99.90
2019-01-22T01:52:45.286Z,99.90
2019-01-22T01:55:16.072Z,99.90
2019-01-22T01:57:45.059Z,99.90
2019-01-22T02:00:16.667Z,99.90
2019-01-22T02:02:45.276Z,99.90
2019-01-22T02:05:13.961Z,99.90
2019-01-22T02:07:42.597Z,99.90
2019-01-22T02:10:19.649Z,99.90
2019-01-22T02:12:51.926Z,99.90
2019-01-22T02:15:29.086Z,99.90
2019-01-22T02:18:33.831Z,99.90
2019-01-22T02:21:14.166Z,99.90
2019-01-22T02:24:02.327Z,99.90
2019-01-22T02:26:59.681Z,99.90
2019-01-22T02:29:43.269Z,99.90
2019-01-22T02:32:27.782Z,99.90
2019-01-22T02:35:02.068Z,99.90
2019-01-22T02:38:00.828Z,99.90
2019-01-22T02:40:41.251Z,99.90
2019-01-22T02:43:18.671Z,99.90
2019-01-22T02:46:26.907Z,99.90
2019-01-22T02:49:07.460Z,99.90
2019-01-22T02:51:39.113Z,99.90
2019-01-22T02:54:10.599Z,99.90
2019-01-22T02:56:48.435Z,99.90
2019-01-22T02:59:38.103Z,99.90
2019-01-22T03:02:24.509Z,99.90
2019-01-22T03:05:01.856Z,99.90
2019-01-22T03:07:48.298Z,99.90
2019-01-22T03:10:25.647Z,99.90
2019-01-22T03:13:12.192Z,99.90
2019-01-22T03:15:58.636Z,99.90
2019-01-22T03:18:30.296Z,99.90
2019-01-22T03:21:04.915Z,99.90
2019-01-22T03:23:46.577Z,99.90
2019-01-22T03:26:21.007Z,99.90
2019-01-22T03:28:55.348Z,99.90
2019-01-22T03:31:49.230Z,99.90
2019-01-22T03:34:20.885Z,99.90
2019-01-22T03:37:01.234Z,99.90
2019-01-22T03:39:32.881Z,99.90
2019-01-22T03:42:19.414Z,99.90
2019-01-22T03:45:07.818Z,99.90
2019-01-22T03:47:48.488Z,99.90
2019-01-22T03:50:44.347Z,99.90
2019-01-22T03:53:28.199Z,99.90
2019-01-22T03:56:15.962Z,99.90
2019-01-22T03:58:44.506Z,99.90
2019-01-22T04:01:13.051Z,99.90
2019-01-22T04:03:41.690Z,99.90
2019-01-22T04:06:10.308Z,99.90
2019-01-22T04:08:39.384Z,99.90
2019-01-22T04:11:08.214Z,99.90
2019-01-22T04:13:37.144Z,99.90
2019-01-22T04:16:05.822Z,99.90
2019-01-22T04:18:34.602Z,99.90
2019-01-22T04:21:03.696Z,99.90
2019-01-22T04:23:37.891Z,99.90
2019-01-22T04:26:30.775Z,99.90
2019-01-22T04:29:14.603Z,99.90
2019-01-22T04:31:46.238Z,99.90
2019-01-22T04:34:38.791Z,99.90
2019-01-22T04:37:22.643Z,99.90
2019-01-22T04:40:16.679Z,99.90
2019-01-22T04:42:54.388Z,99.90
2019-01-22T04:45:44.159Z,99.90
2019-01-22T04:48:21.719Z,99.90
2019-01-22T04:50:55.895Z,99.90
2019-01-22T04:53:56.465Z,99.90
2019-01-22T04:56:53.908Z,99.90
2019-01-22T04:59:31.285Z,99.90
2019-01-22T05:02:05.435Z,99.90
2019-01-22T05:04:37.109Z,99.90
2019-01-22T05:07:20.511Z,99.90
2019-01-22T05:10:14.742Z,99.90
2019-01-22T05:12:51.948Z,99.90
2019-01-22T05:15:44.520Z,99.90
2019-01-22T05:18:32.683Z,99.90
2019-01-22T05:21:35.852Z,99.90
2019-01-22T05:24:42.228Z,99.90
2019-01-22T05:27:48.504Z,99.90
2019-01-22T05:30:22.801Z,99.90
2019-01-22T05:33:18.623Z,99.90
2019-01-22T05:36:13.115Z,99.90
2019-01-22T05:38:50.562Z,99.90
2019-01-22T05:41:34.178Z,99.90
2019-01-22T05:44:11.518Z,99.90
2019-01-22T05:47:02.667Z,99.90
2019-01-22T05:49:43.074Z,99.90
2019-01-22T05:52:17.814Z,99.90
2019-01-22T05:54:49.466Z,99.90
2019-01-22T05:57:19.041Z,99.90
2019-01-22T05:59:59.672Z,99.90
2019-01-22T06:02:31.659Z,99.90
2019-01-22T06:05:11.986Z,99.90
2019-01-22T06:08:03.112Z,99.90
2019-01-22T06:10:57.151Z,99.90
2019-01-22T06:13:40.895Z,99.90
2019-01-22T06:16:21.656Z,99.90
2019-01-22T06:19:05.219Z,99.90
2019-01-22T06:21:39.823Z,99.90
2019-01-22T06:24:11.459Z,99.90
2019-01-22T06:26:45.946Z,99.90
2019-01-22T06:29:43.189Z,99.90
2019-01-22T06:32:20.325Z,99.90
2019-01-22T06:35:00.731Z,99.90
2019-01-22T06:37:47.215Z,99.90
2019-01-22T06:40:21.740Z,99.90
2019-01-22T06:43:11.238Z,99.90
2019-01-22T06:45:48.190Z,99.90
2019-01-22T06:48:31.648Z,99.90
2019-01-22T06:51:27.790Z,99.90
2019-01-22T06:53:59.371Z,99.90
2019-01-22T06:56:40.018Z,99.90
2019-01-22T06:59:14.815Z,99.90
2019-01-22T07:02:06.254Z,99.90
2019-01-22T07:04:52.567Z,99.90
2019-01-22T07:07:57.325Z,99.90
2019-01-22T07:10:40.802Z,99.90
2019-01-22T07:13:15.488Z,99.90
2019-01-22T07:15:50.007Z,99.90
2019-01-22T07:18:40.999Z,99.90
2019-01-22T07:21:21.383Z,99.90
2019-01-22T07:24:14.288Z,99.90
2019-01-22T07:26:48.636Z,99.90
2019-01-22T07:29:35.381Z,99.90
2019-01-22T07:32:12.898Z,99.90
2019-01-22T07:35:13.321Z,99.90
2019-01-22T07:37:48.124Z,99.90
2019-01-22T07:40:19.753Z,99.90
2019-01-22T07:42:54.243Z,99.90
2019-01-22T07:45:41.002Z,99.90
2019-01-22T07:48:12.648Z,99.90
2019-01-22T07:50:44.279Z,99.90
2019-01-22T07:53:15.894Z,99.90
2019-01-22T07:55:53.105Z,99.90
2019-01-22T07:58:33.498Z,99.90
2019-01-22T08:01:13.927Z,99.90
2019-01-22T08:04:04.970Z,99.90
2019-01-22T08:06:59.571Z,99.90
2019-01-22T08:09:43.415Z,99.90
2019-01-22T08:12:27.063Z,99.90
2019-01-22T08:14:58.686Z,99.90
2019-01-22T08:17:33.275Z,99.90
2019-01-22T08:20:07.511Z,99.90
2019-01-22T08:22:45.041Z,99.90
2019-01-22T08:25:31.815Z,99.90
2019-01-22T08:28:03.458Z,99.90
2019-01-22T08:30:52.877Z,99.90
2019-01-22T08:33:33.498Z,99.90
2019-01-22T08:36:23.224Z,99.90
2019-01-22T08:38:54.871Z,99.90
2019-01-22T08:41:29.118Z,99.90
2019-01-22T08:44:00.763Z,99.90
2019-01-22T08:47:05.559Z,99.90
2019-01-22T08:49:49.271Z,99.90
2019-01-22T08:52:20.891Z,99.90
2019-01-22T08:54:55.392Z,99.90
2019-01-22T08:57:27.018Z,99.90
2019-01-22T09:00:09.944Z,99.90
2019-01-22T09:02:41.559Z,99.90
2019-01-22T09:05:29.770Z,99.90
2019-01-22T09:08:19.582Z,99.90
2019-01-22T09:10:54.183Z,99.90
2019-01-22T09:13:43.712Z,99.90
2019-01-22T09:16:36.210Z,99.90
2019-01-22T09:19:13.308Z,99.90
2019-01-22T09:21:59.910Z,99.90
2019-01-22T09:24:37.135Z,99.90
2019-01-22T09:27:25.527Z,99.90
2019-01-22T09:30:03.213Z,99.90
2019-01-22T09:32:40.407Z,99.90
2019-01-22T09:35:24.123Z,99.90
2019-01-22T09:37:52.750Z,99.90
2019-01-22T09:40:24.357Z,99.90
2019-01-22T09:42:51.619Z,99.90
2019-01-22T09:45:20.272Z,99.90
2019-01-22T09:47:48.819Z,99.90
2019-01-22T09:50:17.420Z,99.90
2019-01-22T09:52:46.074Z,99.90
2019-01-22T09:55:14.946Z,99.90
2019-01-22T09:57:43.555Z,99.90
2019-01-22T10:00:18.015Z,99.90
2019-01-22T10:02:46.615Z,99.90
2019-01-22T10:05:16.304Z,99.90
2019-01-22T10:07:44.866Z,99.90
2019-01-22T10:10:19.571Z,99.90
2019-01-22T10:12:48.187Z,99.90
2019-01-22T10:15:19.568Z,99.90
2019-01-22T10:17:48.234Z,99.90
2019-01-22T10:20:21.942Z,99.90
2019-01-22T10:22:51.139Z,99.90
2019-01-22T10:25:20.015Z,99.90
2019-01-22T10:27:48.716Z,99.90
2019-01-22T10:30:20.195Z,99.90
2019-01-22T10:32:48.834Z,99.90
2019-01-22T10:35:17.440Z,99.90
2019-01-22T10:37:46.125Z,99.90
2019-01-22T10:40:17.327Z,99.90
2019-01-22T10:42:45.926Z,99.90
2019-01-22T10:45:16.513Z,99.90
2019-01-22T10:47:45.211Z,99.90
2019-01-22T10:50:19.663Z,99.90
2019-01-22T10:52:48.369Z,99.90
2019-01-22T10:55:17.145Z,99.90
2019-01-22T10:57:45.822Z,99.90
2019-01-22T11:00:26.303Z,99.90
2019-01-22T11:02:55.072Z,99.90
2019-01-22T11:05:29.379Z,99.90
2019-01-22T11:07:57.949Z,99.90
2019-01-22T11:10:26.541Z,99.90
2019-01-22T11:12:55.156Z,99.80
2019-01-22T11:15:27.774Z,97.90
2019-01-22T11:17:53.983Z,98.40
2019-01-22T11:20:30.341Z,99.00
2019-01-22T11:22:59.098Z,98.00
2019-01-22T11:25:32.744Z,99.20
2019-01-22T11:28:01.307Z,99.00
2019-01-22T11:30:30.071Z,99.10
2019-01-22T11:32:58.708Z,99.80
2019-01-22T11:35:27.389Z,97.80
2019-01-22T11:37:55.992Z,98.30
2019-01-22T11:40:33.441Z,98.40
2019-01-22T11:43:02.044Z,97.80
2019-01-22T11:45:30.656Z,96.60
2019-01-22T11:47:59.355Z,97.40
2019-01-22T11:50:28.028Z,96.50
2019-01-22T11:52:56.631Z,97.00
2019-01-22T11:55:25.334Z,97.00
2019-01-22T11:57:53.867Z,97.60
2019-01-22T12:00:29.544Z,95.60
2019-01-22T12:02:58.161Z,96.70
2019-01-22T12:05:26.832Z,96.80
2019-01-22T12:07:55.522Z,96.60
2019-01-22T12:10:24.199Z,96.10
2019-01-22T12:12:52.844Z,94.90
2019-01-22T12:15:21.520Z,96.90
2019-01-22T12:17:50.215Z,94.60
2019-01-22T12:20:33.931Z,94.60
2019-01-22T12:23:02.571Z,93.20
2019-01-22T12:25:31.109Z,94.00
2019-01-22T12:27:59.724Z,95.10
2019-01-22T12:30:33.942Z,94.60
2019-01-22T12:33:07.663Z,94.20
2019-01-22T12:35:35.829Z,92.50
2019-01-22T12:38:05.043Z,91.50
2019-01-22T12:40:33.756Z,91.90
2019-01-22T12:43:02.800Z,91.50
2019-01-22T12:45:34.017Z,92.50
2019-01-22T12:48:02.617Z,93.10
2019-01-22T12:50:31.694Z,92.40
2019-01-22T12:53:00.324Z,91.70
2019-01-22T12:55:28.933Z,92.60
2019-01-22T12:57:59.996Z,92.60
2019-01-22T13:00:36.353Z,93.20
2019-01-22T13:03:05.824Z,92.40
2019-01-22T13:05:43.983Z,91.10
2019-01-22T13:08:12.604Z,92.70
2019-01-22T13:10:41.750Z,92.30
2019-01-22T13:13:10.336Z,92.20
2019-01-22T13:15:38.937Z,92.70
2019-01-22T13:18:07.614Z,92.40
2019-01-22T13:20:36.235Z,91.90
2019-01-22T13:23:04.910Z,91.60
2019-01-22T13:25:33.519Z,92.10
2019-01-22T13:28:02.081Z,92.00
2019-01-22T13:30:31.784Z,92.70
2019-01-22T13:33:00.563Z,91.60
2019-01-22T13:35:29.186Z,92.10
2019-01-22T13:37:57.871Z,93.40
2019-01-22T13:40:26.337Z,92.60
2019-01-22T13:42:54.973Z,92.30
2019-01-22T13:45:29.222Z,92.40
2019-01-22T13:47:59.119Z,92.90
2019-01-22T13:50:27.718Z,92.60
2019-01-22T13:52:56.404Z,92.50
2019-01-22T13:55:30.662Z,92.50
2019-01-22T13:57:59.443Z,93.30
2019-01-22T14:00:29.279Z,92.50
2019-01-22T14:02:59.985Z,92.00
2019-01-22T14:05:28.864Z,92.10
2019-01-22T14:07:57.463Z,93.00
2019-01-22T14:10:26.374Z,92.60
2019-01-22T14:12:54.912Z,91.40
2019-01-22T14:15:29.666Z,91.70
2019-01-22T14:17:59.020Z,91.90
2019-01-22T14:20:32.948Z,91.90
2019-01-22T14:23:01.667Z,92.90
2019-01-22T14:25:30.479Z,92.90
2019-01-22T14:27:59.043Z,92.90
2019-01-22T14:30:37.507Z,92.40
2019-01-22T14:33:06.588Z,93.20
2019-01-22T14:35:35.262Z,92.90
2019-01-22T14:38:06.979Z,93.50
2019-01-22T14:40:36.088Z,93.50
2019-01-22T14:43:04.889Z,93.40
2019-01-22T14:45:34.068Z,94.20
2019-01-22T14:48:02.976Z,93.30
2019-01-22T14:50:33.714Z,93.50
2019-01-22T14:53:02.442Z,93.90
2019-01-22T14:55:30.977Z,94.70
2019-01-22T14:58:00.028Z,94.80
2019-01-22T15:00:30.210Z,95.30
2019-01-22T15:03:00.021Z,96.10
2019-01-22T15:05:29.020Z,96.10
2019-01-22T15:07:58.914Z,96.10
2019-01-22T15:10:27.507Z,96.70
2019-01-22T15:13:00.457Z,96.90
2019-01-22T15:15:29.162Z,97.50
2019-01-22T15:17:57.696Z,98.00
2019-01-22T15:20:27.370Z,98.30
2019-01-22T15:22:56.231Z,98.30
2019-01-22T15:25:25.120Z,98.50
2019-01-22T15:27:54.127Z,98.80
2019-01-22T15:30:25.487Z,98.90
2019-01-22T15:32:55.873Z,99.50
2019-01-22T15:35:24.800Z,99.90
2019-01-22T15:37:53.331Z,99.90
2019-01-22T15:40:24.221Z,99.90
2019-01-22T15:42:52.827Z,99.90
2019-01-22T15:45:21.534Z,99.90
2019-01-22T15:47:50.519Z,99.90
2019-01-22T15:50:21.094Z,99.90
2019-01-22T15:52:50.063Z,99.90
2019-01-22T15:55:21.497Z,99.90
2019-01-22T15:57:50.036Z,99.90
2019-01-22T16:00:21.326Z,99.90
2019-01-22T16:02:49.998Z,99.90
2019-01-22T16:05:18.806Z,99.90
2019-01-22T16:07:47.439Z,99.90
2019-01-22T16:10:16.123Z,99.90
2019-01-22T16:12:45.536Z,99.90
2019-01-22T16:15:16.718Z,99.90
2019-01-22T16:17:45.494Z,99.90
2019-01-22T16:20:16.946Z,99.90
2019-01-22T16:22:45.663Z,99.90
2019-01-22T16:25:14.729Z,99.90
2019-01-22T16:27:43.340Z,99.90
2019-01-22T16:30:14.852Z,99.90
2019-01-22T16:32:43.394Z,99.90
2019-01-22T16:35:14.879Z,99.90
2019-01-22T16:37:43.588Z,99.90
2019-01-22T16:40:14.172Z,99.90
2019-01-22T16:42:42.923Z,99.90
2019-01-22T16:45:22.798Z,99.90
2019-01-22T16:47:51.398Z,99.90
2019-01-22T16:50:20.014Z,99.90
2019-01-22T16:52:48.671Z,99.90
2019-01-22T16:55:20.547Z,99.90
2019-01-22T16:57:49.099Z,99.90
2019-01-22T17:00:20.876Z,99.90
2019-01-22T17:02:49.485Z,99.90
2019-01-22T17:05:18.165Z,99.90
2019-01-22T17:07:46.812Z,99.90
2019-01-22T17:10:18.459Z,99.90
2019-01-22T17:12:47.127Z,99.90
2019-01-22T17:15:16.844Z,99.90
2019-01-22T17:17:48.922Z,99.90
2019-01-22T17:20:26.004Z,99.90
2019-01-22T17:22:54.610Z,99.90
2019-01-22T17:25:23.291Z,99.90
2019-01-22T17:27:51.998Z,99.90
2019-01-22T17:30:24.899Z,99.90
2019-01-22T17:32:58.163Z,99.90
2019-01-22T17:35:26.773Z,99.90
2019-01-22T17:37:55.311Z,99.90
2019-01-22T17:40:23.947Z,99.90
2019-01-22T17:42:52.560Z,99.90
2019-01-22T17:45:21.231Z,99.90
2019-01-22T17:47:49.864Z,99.90
2019-01-22T17:50:18.646Z,99.90
2019-01-22T17:52:47.355Z,99.90
2019-01-22T17:55:16.030Z,99.90
2019-01-22T17:57:44.581Z,99.90
2019-01-22T18:00:21.817Z,99.90
2019-01-22T18:02:50.363Z,99.90
2019-01-22T18:05:20.344Z,99.90
2019-01-22T18:07:49.056Z,99.90
2019-01-22T18:10:19.732Z,99.90
2019-01-22T18:12:48.422Z,99.90
2019-01-22T18:15:17.436Z,99.90
2019-01-22T18:17:45.987Z,99.90
2019-01-22T18:20:20.082Z,99.90
2019-01-22T18:22:48.796Z,99.90
2019-01-22T18:25:17.481Z,99.90
2019-01-22T18:27:46.170Z,99.90
2019-01-22T18:30:17.278Z,99.90
2019-01-22T18:32:45.963Z,99.90
2019-01-22T18:35:17.655Z,99.90
2019-01-22T18:37:46.225Z,99.90
2019-01-22T18:40:15.571Z,99.90
2019-01-22T18:42:44.315Z,99.90
2019-01-22T18:45:17.462Z,99.90
2019-01-22T18:47:46.131Z,99.90
2019-01-22T18:50:23.364Z,99.90
2019-01-22T18:52:51.964Z,99.90
2019-01-22T18:55:21.048Z,99.90
2019-01-22T18:57:54.333Z,99.90
2019-01-22T19:00:25.010Z,99.90
2019-01-22T19:02:53.756Z,99.90
2019-01-22T19:05:22.375Z,99.90
2019-01-22T19:07:51.046Z,99.90
2019-01-22T19:10:28.204Z,99.90
2019-01-22T19:12:56.884Z,99.90
2019-01-22T19:15:25.676Z,99.90
2019-01-22T19:17:54.315Z,99.90
2019-01-22T19:20:22.927Z,99.90
2019-01-22T19:22:51.570Z,99.90
2019-01-22T19:25:25.559Z,99.90
2019-01-22T19:27:54.163Z,99.90
2019-01-22T19:30:25.068Z,99.90
2019-01-22T19:32:53.676Z,99.90
2019-01-22T19:35:22.215Z,99.90
2019-01-22T19:37:50.780Z,99.90
2019-01-22T19:40:20.060Z,99.90
2019-01-22T19:42:49.050Z,99.90
2019-01-22T19:45:23.506Z,99.90
2019-01-22T19:47:52.040Z,99.90
2019-01-22T19:50:20.680Z,99.90
2019-01-22T19:52:49.354Z,99.90
2019-01-22T19:55:17.992Z,99.90
2019-01-22T19:57:46.548Z,99.90
2019-01-22T20:00:23.690Z,99.90
2019-01-22T20:02:52.300Z,99.90
2019-01-22T20:05:21.332Z,99.90
2019-01-22T20:07:49.974Z,99.90
2019-01-22T20:10:18.762Z,99.90
2019-01-22T20:12:47.560Z,99.90
2019-01-22T20:15:18.611Z,99.90
2019-01-22T20:17:47.159Z,99.90
2019-01-22T20:20:17.762Z,99.90
2019-01-22T20:22:46.440Z,99.90
2019-01-22T20:25:15.930Z,99.90
2019-01-22T20:27:48.133Z,99.90
2019-01-22T20:30:24.418Z,99.90
2019-01-22T20:32:53.130Z,99.90
2019-01-22T20:35:21.803Z,99.90
2019-01-22T20:37:50.428Z,99.90
2019-01-22T20:40:18.992Z,99.90
2019-01-22T20:42:47.611Z,99.90
2019-01-22T20:45:24.770Z,99.90
2019-01-22T20:47:53.457Z,99.90
2019-01-22T20:50:22.024Z,99.90
2019-01-22T20:52:50.586Z,99.90
2019-01-22T20:55:24.075Z,99.90
2019-01-22T20:57:55.035Z,99.90
2019-01-22T21:00:25.179Z,99.90
2019-01-22T21:02:54.272Z,99.90
2019-01-22T21:05:25.418Z,99.90
2019-01-22T21:07:54.125Z,99.90
2019-01-22T21:10:30.874Z,99.90
2019-01-22T21:12:59.574Z,99.90
2019-01-22T21:15:28.358Z,99.90
2019-01-22T21:17:56.913Z,99.90
2019-01-22T21:20:25.546Z,99.90
2019-01-22T21:22:54.155Z,99.90
2019-01-22T21:25:24.144Z,99.90
2019-01-22T21:27:52.847Z,99.90
2019-01-22T21:30:27.166Z,99.90
2019-01-22T21:32:55.773Z,99.90
2019-01-22T21:35:24.471Z,99.90
2019-01-22T21:37:53.080Z,99.90
2019-01-22T21:40:21.755Z,99.90
2019-01-22T21:42:50.774Z,99.90
2019-01-22T21:45:29.815Z,99.90
2019-01-22T21:47:58.514Z,99.90
2019-01-22T21:50:27.190Z,99.90
2019-01-22T21:52:57.075Z,99.90
2019-01-22T21:55:26.613Z,99.90
2019-01-22T21:57:55.159Z,99.90
2019-01-22T22:00:27.751Z,99.90
2019-01-22T22:02:56.380Z,99.90
2019-01-22T22:05:27.956Z,99.90
2019-01-22T22:07:56.670Z,99.90
2019-01-22T22:10:25.673Z,99.90
2019-01-22T22:12:54.288Z,99.90
2019-01-22T22:15:24.969Z,99.90
2019-01-22T22:17:53.670Z,99.90
2019-01-22T22:20:22.555Z,99.90
2019-01-22T22:22:51.172Z,99.90
2019-01-22T22:25:21.391Z,99.90
2019-01-22T22:27:50.066Z,99.90
2019-01-22T22:30:33.526Z,99.90
2019-01-22T22:33:02.077Z,99.90
2019-01-22T22:35:30.674Z,99.90
2019-01-22T22:37:59.410Z,99.90
2019-01-22T22:40:28.072Z,99.90
2019-01-22T22:42:56.686Z,99.90
2019-01-22T22:45:25.391Z,99.90
2019-01-22T22:47:54.274Z,99.90
2019-01-22T22:50:25.047Z,99.90
2019-01-22T22:52:53.683Z,99.90
2019-01-22T22:55:22.303Z,99.90
2019-01-22T22:57:50.859Z,99.90
2019-01-22T23:00:42.048Z,99.90
2019-01-22T23:03:10.953Z,99.90
2019-01-22T23:05:39.630Z,99.90
2019-01-22T23:08:08.311Z,99.90
2019-01-22T23:10:37.114Z,99.90
2019-01-22T23:13:05.799Z,99.90
2019-01-22T23:15:34.510Z,99.90
2019-01-22T23:18:03.214Z,99.90
2019-01-22T23:20:32.303Z,99.90
2019-01-22T23:23:01.086Z,99.90
2019-01-22T23:25:29.718Z,99.90
2019-01-22T23:27:58.324Z,99.90
2019-01-22T23:30:27.034Z,99.90
2019-01-22T23:32:55.575Z,99.90
2019-01-22T23:35:24.211Z,99.90
2019-01-22T23:37:52.823Z,99.90
2019-01-22T23:40:21.503Z,99.90
2019-01-22T23:42:50.142Z,99.90
2019-01-22T23:45:19.318Z,99.90
2019-01-22T23:47:47.858Z,99.90
2019-01-22T23:50:16.762Z,99.90
2019-01-22T23:52:45.366Z,99.90
2019-01-22T23:55:14.051Z,99.90
2019-01-22T23:57:42.612Z,99.90
